createdAt,value
2023-04-02T00:01:40.055Z,99795.28
2023-04-02T00:04:23.867Z,99804.53
2023-04-02T00:06:55.017Z,99801.75
2023-04-02T00:09:27.812Z,99799.28
2023-04-02T00:11:58.233Z,99808.19
2023-04-02T00:14:35.811Z,99807.41
2023-04-02T00:17:06.404Z,99801.75
2023-04-02T00:19:45.681Z,99808.59
2023-04-02T00:22:21.555Z,99804.63
2023-04-02T00:24:56.897Z,99805.41
2023-04-02T00:27:27.169Z,99810.22
2023-04-02T00:29:59.973Z,99815.09
2023-04-02T00:32:31.851Z,99812.66
2023-04-02T00:35:03.494Z,99821.94
2023-04-02T00:37:39.094Z,99817.91
2023-04-02T00:40:20.684Z,99817.50
2023-04-02T00:42:51.964Z,99817.91
2023-04-02T00:45:19.731Z,99812.25
2023-04-02T00:47:51.294Z,99812.66
2023-04-02T00:50:26.458Z,99816.28
2023-04-02T00:52:57.272Z,99819.94
2023-04-02T00:55:39.314Z,99819.53
2023-04-02T00:58:37.175Z,99812.25
2023-04-02T01:01:16.970Z,99811.06
2023-04-02T01:03:58.711Z,99815.88
2023-04-02T01:06:34.515Z,99821.56
2023-04-02T01:09:17.571Z,99812.66
2023-04-02T01:11:58.685Z,99811.06
2023-04-02T01:14:45.417Z,99818.69
2023-04-02T01:17:48.872Z,99819.53
2023-04-02T01:20:34.772Z,99814.69
2023-04-02T01:23:08.500Z,99814.25
2023-04-02T01:26:02.148Z,99815.09
2023-04-02T01:28:55.937Z,99820.34
2023-04-02T01:31:28.225Z,99811.06
2023-04-02T01:33:57.226Z,99814.66
2023-04-02T01:36:49.902Z,99807.44
2023-04-02T01:39:33.267Z,99805.81
2023-04-02T01:42:14.522Z,99817.06
2023-04-02T01:44:47.401Z,99811.47
2023-04-02T01:47:21.918Z,99817.06
2023-04-02T01:49:51.828Z,99815.91
2023-04-02T01:52:35.454Z,99819.09
2023-04-02T01:55:04.561Z,99817.91
2023-04-02T01:57:32.426Z,99830.03
2023-04-02T02:00:01.898Z,99828.88
2023-04-02T02:02:32.707Z,99832.47
2023-04-02T02:05:04.054Z,99821.56
2023-04-02T02:07:32.317Z,99840.94
2023-04-02T02:10:03.149Z,99834.53
2023-04-02T02:12:31.288Z,99836.13
2023-04-02T02:14:59.483Z,99841.38
2023-04-02T02:17:34.502Z,99849.06
2023-04-02T02:20:12.463Z,99859.16
2023-04-02T02:22:46.871Z,99864.38
2023-04-02T02:25:28.950Z,99870.06
2023-04-02T02:28:08.225Z,99868.03
2023-04-02T02:30:59.199Z,99869.25
2023-04-02T02:33:32.552Z,99865.63
2023-04-02T02:36:10.204Z,99872.44
2023-04-02T02:38:49.754Z,99881.31
2023-04-02T02:41:31.191Z,99883.72
2023-04-02T02:44:08.790Z,99884.94
2023-04-02T02:46:43.233Z,99895.47
2023-04-02T02:49:22.750Z,99891.44
2023-04-02T02:52:01.728Z,99888.63
2023-04-02T02:54:50.501Z,99909.59
2023-04-02T02:57:26.261Z,99904.78
2023-04-02T03:00:00.713Z,99902.31
2023-04-02T03:02:37.524Z,99901.13
2023-04-02T03:05:16.640Z,99900.75
2023-04-02T03:07:45.475Z,99897.94
2023-04-02T03:10:22.532Z,99905.22
2023-04-02T03:13:33.187Z,99906.03
2023-04-02T03:16:22.435Z,99905.22
2023-04-02T03:19:31.618Z,99912.47
2023-04-02T03:22:08.750Z,99912.06
2023-04-02T03:25:18.363Z,99908.47
2023-04-02T03:27:51.814Z,99914.91
2023-04-02T03:30:57.104Z,99912.09
2023-04-02T03:33:32.339Z,99913.31
2023-04-02T03:36:10.738Z,99918.16
2023-04-02T03:38:45.142Z,99917.34
2023-04-02T03:41:38.842Z,99918.94
2023-04-02T03:44:19.548Z,99916.91
2023-04-02T03:46:57.389Z,99919.31
2023-04-02T03:49:51.424Z,99915.31
2023-04-02T03:52:29.820Z,99925.38
2023-04-02T03:55:11.576Z,99932.63
2023-04-02T03:57:47.701Z,99931.44
2023-04-02T04:00:22.367Z,99934.66
2023-04-02T04:03:03.565Z,99942.28
2023-04-02T04:05:38.627Z,99946.75
2023-04-02T04:08:20.230Z,99943.13
2023-04-02T04:10:53.142Z,99953.63
2023-04-02T04:13:32.168Z,99952.84
2023-04-02T04:16:10.975Z,99957.66
2023-04-02T04:18:52.757Z,99965.75
2023-04-02T04:21:37.496Z,99964.13
2023-04-02T04:24:25.510Z,99965.75
2023-04-02T04:27:09.734Z,99973.03
2023-04-02T04:29:47.486Z,99968.97
2023-04-02T04:32:38.958Z,99972.63
2023-04-02T04:35:26.908Z,99975.84
2023-04-02T04:38:14.793Z,99981.91
2023-04-02T04:40:54.069Z,99981.50
2023-04-02T04:43:41.036Z,99987.94
2023-04-02T04:46:18.349Z,99987.91
2023-04-02T04:49:28.442Z,100007.69
2023-04-02T04:52:19.325Z,100003.69
2023-04-02T04:54:49.441Z,100007.72
2023-04-02T04:57:36.533Z,100024.25
2023-04-02T05:00:44.617Z,100024.66
2023-04-02T05:04:22.721Z,100036.38
2023-04-02T05:06:51.080Z,100035.56
2023-04-02T05:09:33.339Z,100037.16
2023-04-02T05:12:22.501Z,100043.22
2023-04-02T05:15:02.555Z,100042.00
2023-04-02T05:17:54.322Z,100051.31
2023-04-02T05:20:37.978Z,100056.53
2023-04-02T05:23:37.515Z,100057.31
2023-04-02T05:26:17.428Z,100056.94
2023-04-02T05:29:11.660Z,100051.28
2023-04-02T05:31:48.840Z,100066.97
2023-04-02T05:34:27.962Z,100066.19
2023-04-02T05:36:56.287Z,100067.78
2023-04-02T05:39:27.271Z,100072.25
2023-04-02T05:42:05.711Z,100073.06
2023-04-02T05:45:19.188Z,100081.53
2023-04-02T05:47:54.553Z,100089.22
2023-04-02T05:50:37.044Z,100093.63
2023-04-02T05:53:22.843Z,100101.72
2023-04-02T05:56:01.325Z,100110.19
2023-04-02T05:59:04.715Z,100115.81
2023-04-02T06:01:47.267Z,100113.41
2023-04-02T06:04:34.147Z,100130.75
2023-04-02T06:07:10.437Z,100127.53
2023-04-02T06:10:09.529Z,100132.38
2023-04-02T06:12:46.391Z,100139.22
2023-04-02T06:15:17.329Z,100140.84
2023-04-02T06:18:04.788Z,100156.97
2023-04-02T06:20:34.597Z,100157.38
2023-04-02T06:23:04.812Z,100156.59
2023-04-02T06:25:45.836Z,100159.41
2023-04-02T06:28:31.581Z,100164.25
2023-04-02T06:31:07.934Z,100163.03
2023-04-02T06:33:41.250Z,100166.25
2023-04-02T06:36:12.669Z,100178.34
2023-04-02T06:38:42.659Z,100173.91
2023-04-02T06:41:17.974Z,100180.75
2023-04-02T06:44:06.186Z,100190.84
2023-04-02T06:46:59.092Z,100187.22
2023-04-02T06:49:38.403Z,100194.50
2023-04-02T06:52:19.605Z,100185.63
2023-04-02T06:54:50.848Z,100182.78
2023-04-02T06:57:27.626Z,100178.38
2023-04-02T07:00:00.956Z,100186.03
2023-04-02T07:02:38.226Z,100188.44
2023-04-02T07:05:13.128Z,100200.97
2023-04-02T07:07:47.168Z,100211.44
2023-04-02T07:10:20.190Z,100209.03
2023-04-02T07:12:50.968Z,100216.28
2023-04-02T07:15:24.055Z,100217.06
2023-04-02T07:17:57.225Z,100226.75
2023-04-02T07:20:37.627Z,100227.97
2023-04-02T07:23:08.599Z,100232.41
2023-04-02T07:25:38.451Z,100241.28
2023-04-02T07:28:06.340Z,100235.66
2023-04-02T07:30:38.569Z,100240.88
2023-04-02T07:33:19.162Z,100244.91
2023-04-02T07:35:49.755Z,100251.34
2023-04-02T07:38:22.490Z,100256.19
2023-04-02T07:40:52.933Z,100274.75
2023-04-02T07:43:23.205Z,100263.06
2023-04-02T07:45:51.542Z,100269.91
2023-04-02T07:48:24.420Z,100275.56
2023-04-02T07:50:56.475Z,100277.19
2023-04-02T07:53:38.173Z,100277.59
2023-04-02T07:56:08.293Z,100283.63
2023-04-02T07:58:43.311Z,100283.22
2023-04-02T08:01:24.456Z,100284.84
2023-04-02T08:03:57.128Z,100293.31
2023-04-02T08:06:26.543Z,100295.72
2023-04-02T08:09:04.813Z,100305.41
2023-04-02T08:11:40.214Z,100307.03
2023-04-02T08:14:11.483Z,100301.38
2023-04-02T08:16:52.958Z,100302.59
2023-04-02T08:19:23.773Z,100307.81
2023-04-02T08:21:53.829Z,100301.00
2023-04-02T08:24:21.712Z,100317.91
2023-04-02T08:26:54.974Z,100306.22
2023-04-02T08:29:32.251Z,100315.50
2023-04-02T08:32:03.004Z,100321.56
2023-04-02T08:34:33.607Z,100315.09
2023-04-02T08:37:06.868Z,100312.69
2023-04-02T08:39:41.337Z,100314.69
2023-04-02T08:42:19.247Z,100323.56
2023-04-02T08:45:24.269Z,100322.38
2023-04-02T08:48:03.429Z,100336.88
2023-04-02T08:50:37.686Z,100344.13
2023-04-02T08:53:15.433Z,100328.81
2023-04-02T08:56:04.091Z,100341.28
2023-04-02T08:58:42.798Z,100336.06
2023-04-02T09:01:49.525Z,100330.03
2023-04-02T09:04:26.712Z,100318.31
2023-04-02T09:06:59.456Z,100313.91
2023-04-02T09:09:27.643Z,100320.34
2023-04-02T09:12:04.617Z,100334.47
2023-04-02T09:14:59.826Z,100336.47
2023-04-02T09:17:42.622Z,100341.31
2023-04-02T09:20:26.336Z,100336.47
2023-04-02T09:23:00.160Z,100336.47
2023-04-02T09:25:31.665Z,100347.34
2023-04-02T09:28:08.162Z,100361.47
2023-04-02T09:31:10.185Z,100357.06
2023-04-02T09:33:54.709Z,100345.75
2023-04-02T09:36:40.160Z,100357.06
2023-04-02T09:39:25.800Z,100360.25
2023-04-02T09:42:05.401Z,100355.03
2023-04-02T09:44:38.761Z,100366.72
2023-04-02T09:47:25.591Z,100367.53
2023-04-02T09:50:36.094Z,100363.50
2023-04-02T09:53:35.699Z,100376.00
2023-04-02T09:56:14.528Z,100376.41
2023-04-02T09:59:03.003Z,100368.34
2023-04-02T10:01:55.133Z,100366.72
2023-04-02T10:04:47.946Z,100370.75
2023-04-02T10:07:39.815Z,100357.84
2023-04-02T10:10:16.596Z,100349.78
2023-04-02T10:12:54.013Z,100356.25
2023-04-02T10:15:35.925Z,100347.34
2023-04-02T10:18:45.024Z,100348.16
2023-04-02T10:21:18.260Z,100340.91
2023-04-02T10:23:47.753Z,100340.50
2023-04-02T10:26:35.737Z,100346.13
2023-04-02T10:29:06.958Z,100339.31
2023-04-02T10:31:38.938Z,100334.88
2023-04-02T10:34:17.267Z,100331.63
2023-04-02T10:36:55.152Z,100335.25
2023-04-02T10:39:26.066Z,100336.09
2023-04-02T10:42:05.384Z,100329.63
2023-04-02T10:44:54.565Z,100331.66
2023-04-02T10:47:47.012Z,100326.41
2023-04-02T10:50:32.376Z,100326.41
2023-04-02T10:53:09.053Z,100317.50
2023-04-02T10:55:43.197Z,100319.97
2023-04-02T10:58:26.845Z,100322.78
2023-04-02T11:01:01.034Z,100325.19
2023-04-02T11:03:34.393Z,100323.16
2023-04-02T11:06:12.139Z,100328.00
2023-04-02T11:08:47.269Z,100335.28
2023-04-02T11:11:22.590Z,100344.56
2023-04-02T11:14:05.474Z,100351.00
2023-04-02T11:16:33.611Z,100358.28
2023-04-02T11:19:16.632Z,100362.28
2023-04-02T11:22:03.730Z,100363.13
2023-04-02T11:24:49.765Z,100372.41
2023-04-02T11:27:30.431Z,100375.59
2023-04-02T11:30:16.022Z,100388.53
2023-04-02T11:32:49.631Z,100390.53
2023-04-02T11:35:31.352Z,100393.00
2023-04-02T11:38:18.610Z,100389.75
2023-04-02T11:41:02.565Z,100395.00
2023-04-02T11:43:35.280Z,100408.72
2023-04-02T11:46:16.555Z,100402.69
2023-04-02T11:48:46.823Z,100421.25
2023-04-02T11:51:22.879Z,100420.81
2023-04-02T11:54:06.255Z,100411.94
2023-04-02T11:56:45.414Z,100417.59
2023-04-02T11:59:46.082Z,100427.28
2023-04-02T12:02:26.191Z,100433.34
2023-04-02T12:05:24.112Z,100408.31
2023-04-02T12:08:16.889Z,100406.28
2023-04-02T12:10:59.737Z,100408.72
2023-04-02T12:13:43.070Z,100404.69
2023-04-02T12:16:16.971Z,100406.28
2023-04-02T12:18:54.141Z,100409.13
2023-04-02T12:21:35.952Z,100413.56
2023-04-02T12:24:03.880Z,100410.72
2023-04-02T12:26:37.889Z,100395.78
2023-04-02T12:29:27.077Z,100382.88
2023-04-02T12:31:57.137Z,100381.28
2023-04-02T12:34:31.245Z,100371.59
2023-04-02T12:37:08.628Z,100346.16
2023-04-02T12:39:38.991Z,100349.00
2023-04-02T12:42:25.908Z,100350.59
2023-04-02T12:44:55.116Z,100345.78
2023-04-02T12:47:29.165Z,100333.28
2023-04-02T12:49:59.165Z,100329.66
2023-04-02T12:52:32.690Z,100312.69
2023-04-02T12:55:10.085Z,100318.34
2023-04-02T12:57:41.881Z,100303.00
2023-04-02T13:00:30.983Z,100313.50
2023-04-02T13:03:17.021Z,100314.28
2023-04-02T13:05:49.850Z,100311.47
2023-04-02T13:08:22.363Z,100313.06
2023-04-02T13:11:16.591Z,100311.06
2023-04-02T13:13:45.983Z,100310.25
2023-04-02T13:16:18.962Z,100311.06
2023-04-02T13:18:50.683Z,100305.00
2023-04-02T13:21:21.160Z,100297.34
2023-04-02T13:23:51.379Z,100291.69
2023-04-02T13:26:24.690Z,100293.28
2023-04-02T13:28:58.953Z,100287.63
2023-04-02T13:31:28.173Z,100286.84
2023-04-02T13:33:59.266Z,100280.81
2023-04-02T13:36:29.572Z,100280.41
2023-04-02T13:39:01.869Z,100282.81
2023-04-02T13:41:32.063Z,100277.97
2023-04-02T13:44:02.430Z,100284.41
2023-04-02T13:46:35.387Z,100286.03
2023-04-02T13:49:03.199Z,100291.31
2023-04-02T13:51:41.106Z,100287.66
2023-04-02T13:54:37.771Z,100282.03
2023-04-02T13:57:05.090Z,100297.31
2023-04-02T13:59:32.372Z,100289.66
2023-04-02T14:02:06.438Z,100286.03
2023-04-02T14:04:38.878Z,100294.09
2023-04-02T14:07:21.726Z,100286.47
2023-04-02T14:10:01.080Z,100285.22
2023-04-02T14:12:36.999Z,100291.69
2023-04-02T14:15:27.622Z,100295.31
2023-04-02T14:18:06.805Z,100292.88
2023-04-02T14:21:06.502Z,100294.91
2023-04-02T14:23:42.035Z,100282.78
2023-04-02T14:26:22.402Z,100283.59
2023-04-02T14:28:57.344Z,100286.44
2023-04-02T14:31:35.583Z,100289.66
2023-04-02T14:34:17.833Z,100282.38
2023-04-02T14:36:51.928Z,100281.19
2023-04-02T14:39:45.462Z,100279.16
2023-04-02T14:42:26.155Z,100274.31
2023-04-02T14:45:07.872Z,100279.16
2023-04-02T14:48:02.169Z,100275.91
2023-04-02T14:50:38.264Z,100267.44
2023-04-02T14:53:15.886Z,100274.72
2023-04-02T14:55:48.412Z,100268.25
2023-04-02T14:58:25.956Z,100267.41
2023-04-02T15:01:19.113Z,100267.84
2023-04-02T15:03:59.103Z,100274.72
2023-04-02T15:06:44.494Z,100271.47
2023-04-02T15:09:22.593Z,100270.66
2023-04-02T15:12:07.600Z,100272.69
2023-04-02T15:14:53.822Z,100282.38
2023-04-02T15:17:25.878Z,100274.28
2023-04-02T15:20:13.721Z,100275.53
2023-04-02T15:23:18.486Z,100275.53
2023-04-02T15:26:20.329Z,100271.06
2023-04-02T15:29:15.854Z,100281.97
2023-04-02T15:32:03.988Z,100268.66
2023-04-02T15:34:54.494Z,100275.09
2023-04-02T15:37:31.172Z,100273.50
2023-04-02T15:40:36.815Z,100268.25
2023-04-02T15:43:33.901Z,100277.94
2023-04-02T15:46:12.778Z,100278.75
2023-04-02T15:49:01.329Z,100274.72
2023-04-02T15:51:38.555Z,100277.94
2023-04-02T15:54:37.033Z,100272.69
2023-04-02T15:57:19.655Z,100279.16
2023-04-02T16:00:24.241Z,100287.22
2023-04-02T16:03:29.823Z,100283.19
2023-04-02T16:06:39.370Z,100282.38
2023-04-02T16:09:27.026Z,100285.59
2023-04-02T16:12:13.892Z,100288.44
2023-04-02T16:14:50.224Z,100294.06
2023-04-02T16:17:36.136Z,100288.84
2023-04-02T16:20:18.710Z,100298.13
2023-04-02T16:23:00.535Z,100298.50
2023-04-02T16:25:39.121Z,100293.28
2023-04-02T16:28:49.677Z,100298.94
2023-04-02T16:31:34.266Z,100304.59
2023-04-02T16:34:09.883Z,100302.97
2023-04-02T16:36:54.787Z,100309.44
2023-04-02T16:39:53.217Z,100311.03
2023-04-02T16:42:49.067Z,100307.81
2023-04-02T16:45:19.570Z,100316.66
2023-04-02T16:48:00.562Z,100317.91
2023-04-02T16:50:39.585Z,100325.56
2023-04-02T16:53:21.979Z,100317.88
2023-04-02T16:56:21.739Z,100330.78
2023-04-02T16:59:31.681Z,100330.41
2023-04-02T17:02:13.425Z,100325.56
2023-04-02T17:04:59.143Z,100334.03
2023-04-02T17:07:40.666Z,100333.22
2023-04-02T17:10:24.522Z,100336.06
2023-04-02T17:13:02.442Z,100332.00
2023-04-02T17:15:39.154Z,100334.41
2023-04-02T17:18:18.147Z,100345.72
2023-04-02T17:20:51.417Z,100332.81
2023-04-02T17:23:20.341Z,100338.47
2023-04-02T17:25:57.908Z,100340.47
2023-04-02T17:28:36.615Z,100340.06
2023-04-02T17:31:16.229Z,100345.31
2023-04-02T17:33:46.077Z,100336.06
2023-04-02T17:36:22.252Z,100346.94
2023-04-02T17:39:08.353Z,100348.19
2023-04-02T17:41:47.745Z,100347.75
2023-04-02T17:44:27.158Z,100358.25
2023-04-02T17:47:03.474Z,100366.31
2023-04-02T17:49:58.191Z,100370.78
2023-04-02T17:52:33.466Z,100373.59
2023-04-02T17:55:27.258Z,100380.88
2023-04-02T17:58:01.644Z,100380.06
2023-04-02T18:00:45.760Z,100384.50
2023-04-02T18:03:30.957Z,100395.81
2023-04-02T18:06:08.155Z,100398.22
2023-04-02T18:08:52.476Z,100397.84
2023-04-02T18:11:35.225Z,100408.31
2023-04-02T18:14:56.149Z,100413.56
2023-04-02T18:17:42.903Z,100420.00
2023-04-02T18:20:33.020Z,100414.38
2023-04-02T18:23:09.536Z,100418.41
2023-04-02T18:26:14.608Z,100432.53
2023-04-02T18:29:01.566Z,100444.63
2023-04-02T18:31:40.348Z,100444.66
2023-04-02T18:34:25.980Z,100451.50
2023-04-02T18:37:15.329Z,100447.06
2023-04-02T18:40:30.065Z,100446.66
2023-04-02T18:43:12.748Z,100453.91
2023-04-02T18:45:51.488Z,100459.56
2023-04-02T18:48:53.574Z,100459.56
2023-04-02T18:51:27.215Z,100468.03
2023-04-02T18:54:00.523Z,100468.03
2023-04-02T18:56:33.139Z,100469.22
2023-04-02T18:59:13.144Z,100472.84
2023-04-02T19:01:44.412Z,100474.06
2023-04-02T19:04:27.202Z,100478.94
2023-04-02T19:07:12.169Z,100476.53
2023-04-02T19:09:44.781Z,100477.31
2023-04-02T19:12:20.658Z,100485.38
2023-04-02T19:14:56.110Z,100479.28
2023-04-02T19:17:29.483Z,100487.75
2023-04-02T19:20:09.099Z,100489.38
2023-04-02T19:22:54.886Z,100499.13
2023-04-02T19:25:40.491Z,100503.53
2023-04-02T19:28:21.105Z,100503.53
2023-04-02T19:31:05.469Z,100506.75
2023-04-02T19:33:38.496Z,100501.94
2023-04-02T19:36:34.204Z,100497.09
2023-04-02T19:39:22.473Z,100493.84
2023-04-02T19:42:00.589Z,100495.88
2023-04-02T19:44:30.954Z,100498.28
2023-04-02T19:46:59.623Z,100506.75
2023-04-02T19:49:31.104Z,100508.78
2023-04-02T19:51:58.546Z,100506.75
2023-04-02T19:54:26.160Z,100522.91
2023-04-02T19:56:57.270Z,100533.41
2023-04-02T19:59:27.599Z,100549.16
2023-04-02T20:01:55.014Z,100548.75
2023-04-02T20:04:25.095Z,100549.94
2023-04-02T20:06:52.541Z,100545.91
2023-04-02T20:09:24.398Z,100532.94
2023-04-02T20:11:51.755Z,100524.47
2023-04-02T20:14:21.831Z,100537.00
2023-04-02T20:16:52.868Z,100545.09
2023-04-02T20:19:23.782Z,100560.38
2023-04-02T20:21:53.293Z,100572.13
2023-04-02T20:24:26.669Z,100572.47
2023-04-02T20:26:57.010Z,100563.19
2023-04-02T20:29:31.840Z,100545.44
2023-04-02T20:32:02.044Z,100543.41
2023-04-02T20:34:30.777Z,100531.31
2023-04-02T20:37:01.206Z,100531.31
2023-04-02T20:39:30.891Z,100518.00
2023-04-02T20:42:02.407Z,100532.47
2023-04-02T20:44:32.873Z,100534.13
2023-04-02T20:47:07.161Z,100563.53
2023-04-02T20:49:35.328Z,100568.00
2023-04-02T20:52:08.723Z,100576.50
2023-04-02T20:54:40.785Z,100597.03
2023-04-02T20:57:12.725Z,100590.16
2023-04-02T20:59:42.597Z,100572.84
2023-04-02T21:02:15.581Z,100569.59
2023-04-02T21:04:44.081Z,100546.22
2023-04-02T21:07:14.245Z,100555.47
2023-04-02T21:09:46.710Z,100569.19
2023-04-02T21:12:16.908Z,100576.03
2023-04-02T21:14:46.463Z,100585.72
2023-04-02T21:17:16.172Z,100574.81
2023-04-02T21:19:45.949Z,100564.75
2023-04-02T21:22:13.721Z,100572.00
2023-04-02T21:24:47.383Z,100574.03
2023-04-02T21:27:17.895Z,100574.44
2023-04-02T21:29:45.653Z,100570.78
2023-04-02T21:32:21.623Z,100578.47
2023-04-02T21:34:57.859Z,100563.53
2023-04-02T21:37:25.304Z,100567.16
2023-04-02T21:39:53.678Z,100560.31
2023-04-02T21:42:24.183Z,100562.75
2023-04-02T21:44:54.290Z,100559.47
2023-04-02T21:47:24.342Z,100550.22
2023-04-02T21:49:54.592Z,100545.00
2023-04-02T21:52:23.203Z,100545.00
2023-04-02T21:54:53.769Z,100550.63
2023-04-02T21:57:25.910Z,100561.13
2023-04-02T21:59:56.980Z,100559.09
2023-04-02T22:02:27.671Z,100563.94
2023-04-02T22:04:59.191Z,100560.25
2023-04-02T22:07:28.596Z,100563.09
2023-04-02T22:10:00.868Z,100558.25
2023-04-02T22:12:30.737Z,100552.22
2023-04-02T22:15:02.636Z,100563.88
2023-04-02T22:17:35.484Z,100561.91
2023-04-02T22:20:09.213Z,100565.91
2023-04-02T22:22:36.556Z,100561.91
2023-04-02T22:25:04.077Z,100553.81
2023-04-02T22:27:33.896Z,100557.44
2023-04-02T22:30:03.575Z,100555.03
2023-04-02T22:32:35.623Z,100552.56
2023-04-02T22:35:02.929Z,100549.75
2023-04-02T22:37:36.905Z,100553.00
2023-04-02T22:40:04.934Z,100549.75
2023-04-02T22:42:38.204Z,100546.56
2023-04-02T22:45:08.146Z,100550.56
2023-04-02T22:47:35.750Z,100550.56
2023-04-02T22:50:09.131Z,100549.72
2023-04-02T22:52:38.648Z,100554.16
2023-04-02T22:55:08.741Z,100554.59
2023-04-02T22:57:39.316Z,100554.59
2023-04-02T23:00:19.147Z,100552.19
2023-04-02T23:02:51.671Z,100553.78
2023-04-02T23:05:21.821Z,100543.28
2023-04-02T23:07:51.858Z,100553.38
2023-04-02T23:10:24.095Z,100557.03
2023-04-02T23:12:59.215Z,100557.41
2023-04-02T23:15:31.427Z,100555.41
2023-04-02T23:17:58.813Z,100555.38
2023-04-02T23:20:29.297Z,100550.97
2023-04-02T23:23:04.292Z,100555.38
2023-04-02T23:25:31.595Z,100556.97
2023-04-02T23:28:01.923Z,100562.63
2023-04-02T23:30:31.110Z,100569.91
2023-04-02T23:32:58.626Z,100569.47
2023-04-02T23:35:28.292Z,100567.44
2023-04-02T23:37:57.824Z,100564.63
2023-04-02T23:40:27.876Z,100563.38
2023-04-02T23:42:55.225Z,100562.16
2023-04-02T23:45:22.546Z,100563.03
2023-04-02T23:47:52.901Z,100567.44
2023-04-02T23:50:24.935Z,100560.19
2023-04-02T23:52:54.623Z,100556.56
2023-04-02T23:55:21.925Z,100556.16
2023-04-02T23:57:56.766Z,100553.75
